sensor_id;sensor_type;location;lat;lon;timestamp;P1;durP1;ratioP1;P2;durP2;ratioP2
40072;SDS011;25774;52.256;9.356;2023-03-01T00:01:21;12.68;;;4.05;;
40072;SDS011;25774;52.256;9.356;2023-03-01T00:03:48;9.32;;;3.50;;
40072;SDS011;25774;52.256;9.356;2023-03-01T00:06:15;7.57;;;3.72;;
40072;SDS011;25774;52.256;9.356;2023-03-01T00:08:42;8.73;;;4.28;;
40072;SDS011;25774;52.256;9.356;2023-03-01T00:13:43;6.45;;;3.15;;
40072;SDS011;25774;52.256;9.356;2023-03-01T00:16:13;7.30;;;3.33;;
40072;SDS011;25774;52.256;9.356;2023-03-01T00:18:41;6.32;;;2.97;;
40072;SDS011;25774;52.256;9.356;2023-03-01T00:23:33;10.68;;;3.15;;
40072;SDS011;25774;52.256;9.356;2023-03-01T00:25:59;7.30;;;3.00;;
40072;SDS011;25774;52.256;9.356;2023-03-01T00:28:24;8.37;;;3.47;;
40072;SDS011;25774;52.256;9.356;2023-03-01T00:30:50;6.27;;;3.07;;
40072;SDS011;25774;52.256;9.356;2023-03-01T00:33:15;9.00;;;3.40;;
40072;SDS011;25774;52.256;9.356;2023-03-01T00:35:41;6.75;;;3.00;;
40072;SDS011;25774;52.256;9.356;2023-03-01T00:38:06;5.80;;;2.70;;
40072;SDS011;25774;52.256;9.356;2023-03-01T00:40:32;5.77;;;2.70;;
40072;SDS011;25774;52.256;9.356;2023-03-01T00:42:58;9.70;;;3.25;;
40072;SDS011;25774;52.256;9.356;2023-03-01T00:45:24;7.40;;;3.30;;
40072;SDS011;25774;52.256;9.356;2023-03-01T00:47:50;7.03;;;3.10;;
40072;SDS011;25774;52.256;9.356;2023-03-01T00:50:16;7.57;;;3.30;;
40072;SDS011;25774;52.256;9.356;2023-03-01T00:52:42;7.43;;;2.80;;
40072;SDS011;25774;52.256;9.356;2023-03-01T00:55:09;6.15;;;2.92;;
40072;SDS011;25774;52.256;9.356;2023-03-01T00:57:35;6.57;;;2.92;;
40072;SDS011;25774;52.256;9.356;2023-03-01T01:00:00;7.77;;;3.77;;
40072;SDS011;25774;52.256;9.356;2023-03-01T01:02:26;6.43;;;3.00;;
40072;SDS011;25774;52.256;9.356;2023-03-01T01:04:51;11.40;;;3.40;;
40072;SDS011;25774;52.256;9.356;2023-03-01T01:07:17;7.97;;;3.10;;
40072;SDS011;25774;52.256;9.356;2023-03-01T01:09:42;8.02;;;3.38;;
40072;SDS011;25774;52.256;9.356;2023-03-01T01:12:08;8.77;;;3.00;;
40072;SDS011;25774;52.256;9.356;2023-03-01T01:14:33;7.20;;;3.40;;
40072;SDS011;25774;52.256;9.356;2023-03-01T01:16:59;8.68;;;3.40;;
40072;SDS011;25774;52.256;9.356;2023-03-01T01:19:25;7.07;;;3.10;;
40072;SDS011;25774;52.256;9.356;2023-03-01T01:21:50;9.13;;;3.17;;
40072;SDS011;25774;52.256;9.356;2023-03-01T01:24:16;8.60;;;3.63;;
40072;SDS011;25774;52.256;9.356;2023-03-01T01:26:43;8.05;;;3.63;;
40072;SDS011;25774;52.256;9.356;2023-03-01T01:31:37;6.47;;;2.90;;
40072;SDS011;25774;52.256;9.356;2023-03-01T01:34:05;9.90;;;3.60;;
40072;SDS011;25774;52.256;9.356;2023-03-01T01:36:32;7.97;;;3.83;;
40072;SDS011;25774;52.256;9.356;2023-03-01T01:38:58;6.60;;;3.53;;
40072;SDS011;25774;52.256;9.356;2023-03-01T01:41:24;8.17;;;3.53;;
40072;SDS011;25774;52.256;9.356;2023-03-01T01:49:56;9.80;;;4.07;;
40072;SDS011;25774;52.256;9.356;2023-03-01T01:52:34;13.45;;;3.47;;
40072;SDS011;25774;52.256;9.356;2023-03-01T01:55:04;8.20;;;3.33;;
40072;SDS011;25774;52.256;9.356;2023-03-01T01:57:36;6.32;;;3.15;;
40072;SDS011;25774;52.256;9.356;2023-03-01T02:00:09;8.93;;;3.50;;
40072;SDS011;25774;52.256;9.356;2023-03-01T02:02:38;8.32;;;3.40;;
40072;SDS011;25774;52.256;9.356;2023-03-01T02:05:08;9.65;;;3.45;;
40072;SDS011;25774;52.256;9.356;2023-03-01T02:07:42;10.27;;;3.38;;
40072;SDS011;25774;52.256;9.356;2023-03-01T02:10:09;6.78;;;3.17;;
40072;SDS011;25774;52.256;9.356;2023-03-01T02:12:35;6.82;;;3.50;;
40072;SDS011;25774;52.256;9.356;2023-03-01T02:15:03;10.02;;;3.45;;
40072;SDS011;25774;52.256;9.356;2023-03-01T02:17:30;6.43;;;3.00;;
40072;SDS011;25774;52.256;9.356;2023-03-01T02:20:14;7.13;;;3.58;;
40072;SDS011;25774;52.256;9.356;2023-03-01T02:22:50;6.10;;;2.85;;
40072;SDS011;25774;52.256;9.356;2023-03-01T02:30:40;9.80;;;3.60;;
40072;SDS011;25774;52.256;9.356;2023-03-01T02:33:27;6.25;;;3.10;;
40072;SDS011;25774;52.256;9.356;2023-03-01T02:35:59;8.30;;;3.35;;
40072;SDS011;25774;52.256;9.356;2023-03-01T02:38:28;6.97;;;3.63;;
40072;SDS011;25774;52.256;9.356;2023-03-01T02:40:54;7.72;;;3.55;;
40072;SDS011;25774;52.256;9.356;2023-03-01T02:43:21;9.60;;;3.05;;
40072;SDS011;25774;52.256;9.356;2023-03-01T02:45:49;9.07;;;3.20;;
40072;SDS011;25774;52.256;9.356;2023-03-01T02:48:17;14.05;;;3.10;;
40072;SDS011;25774;52.256;9.356;2023-03-01T02:53:32;7.10;;;3.30;;
40072;SDS011;25774;52.256;9.356;2023-03-01T02:56:06;7.05;;;3.20;;
40072;SDS011;25774;52.256;9.356;2023-03-01T02:58:39;8.07;;;3.55;;
40072;SDS011;25774;52.256;9.356;2023-03-01T03:01:13;8.15;;;2.90;;
40072;SDS011;25774;52.256;9.356;2023-03-01T03:03:40;7.80;;;3.58;;
40072;SDS011;25774;52.256;9.356;2023-03-01T03:06:07;10.18;;;3.70;;
40072;SDS011;25774;52.256;9.356;2023-03-01T03:10:57;8.68;;;3.47;;
40072;SDS011;25774;52.256;9.356;2023-03-01T03:13:22;9.40;;;3.73;;
40072;SDS011;25774;52.256;9.356;2023-03-01T03:15:53;7.65;;;3.03;;
40072;SDS011;25774;52.256;9.356;2023-03-01T03:18:19;10.13;;;3.80;;
40072;SDS011;25774;52.256;9.356;2023-03-01T03:20:45;5.67;;;3.13;;
40072;SDS011;25774;52.256;9.356;2023-03-01T03:23:11;7.05;;;3.50;;
40072;SDS011;25774;52.256;9.356;2023-03-01T03:25:37;6.47;;;3.20;;
40072;SDS011;25774;52.256;9.356;2023-03-01T03:28:03;10.27;;;4.07;;
40072;SDS011;25774;52.256;9.356;2023-03-01T03:30:34;7.60;;;3.38;;
40072;SDS011;25774;52.256;9.356;2023-03-01T03:33:01;6.15;;;3.30;;
40072;SDS011;25774;52.256;9.356;2023-03-01T03:35:29;10.07;;;3.63;;
40072;SDS011;25774;52.256;9.356;2023-03-01T03:37:56;8.65;;;3.53;;
40072;SDS011;25774;52.256;9.356;2023-03-01T03:40:30;6.90;;;3.35;;
40072;SDS011;25774;52.256;9.356;2023-03-01T03:43:04;6.90;;;3.35;;
40072;SDS011;25774;52.256;9.356;2023-03-01T03:45:30;7.45;;;3.40;;
40072;SDS011;25774;52.256;9.356;2023-03-01T03:47:58;8.35;;;3.58;;
40072;SDS011;25774;52.256;9.356;2023-03-01T03:50:24;7.47;;;3.17;;
40072;SDS011;25774;52.256;9.356;2023-03-01T03:52:49;9.33;;;4.10;;
40072;SDS011;25774;52.256;9.356;2023-03-01T03:55:15;7.20;;;3.60;;
40072;SDS011;25774;52.256;9.356;2023-03-01T03:57:44;8.48;;;3.92;;
40072;SDS011;25774;52.256;9.356;2023-03-01T04:00:17;10.65;;;3.55;;
40072;SDS011;25774;52.256;9.356;2023-03-01T04:02:44;6.45;;;3.10;;
40072;SDS011;25774;52.256;9.356;2023-03-01T04:05:11;8.93;;;3.80;;
40072;SDS011;25774;52.256;9.356;2023-03-01T04:07:39;8.65;;;3.67;;
40072;SDS011;25774;52.256;9.356;2023-03-01T04:12:32;7.80;;;3.58;;
40072;SDS011;25774;52.256;9.356;2023-03-01T04:15:02;7.80;;;3.65;;
40072;SDS011;25774;52.256;9.356;2023-03-01T04:17:37;6.80;;;3.08;;
40072;SDS011;25774;52.256;9.356;2023-03-01T04:20:08;6.05;;;3.15;;
40072;SDS011;25774;52.256;9.356;2023-03-01T04:22:37;9.25;;;3.55;;
40072;SDS011;25774;52.256;9.356;2023-03-01T04:25:03;7.85;;;3.90;;
40072;SDS011;25774;52.256;9.356;2023-03-01T04:27:31;7.53;;;3.63;;
40072;SDS011;25774;52.256;9.356;2023-03-01T04:29:58;5.45;;;2.95;;
40072;SDS011;25774;52.256;9.356;2023-03-01T04:32:23;8.50;;;3.87;;
40072;SDS011;25774;52.256;9.356;2023-03-01T04:34:49;10.63;;;3.90;;
40072;SDS011;25774;52.256;9.356;2023-03-01T04:37:14;7.77;;;2.97;;
40072;SDS011;25774;52.256;9.356;2023-03-01T04:39:41;8.02;;;3.85;;
40072;SDS011;25774;52.256;9.356;2023-03-01T04:42:10;11.32;;;4.68;;
40072;SDS011;25774;52.256;9.356;2023-03-01T04:47:02;7.10;;;3.45;;
40072;SDS011;25774;52.256;9.356;2023-03-01T04:49:27;7.50;;;3.27;;
40072;SDS011;25774;52.256;9.356;2023-03-01T04:51:52;12.13;;;4.03;;
40072;SDS011;25774;52.256;9.356;2023-03-01T04:54:17;14.57;;;5.50;;
40072;SDS011;25774;52.256;9.356;2023-03-01T04:56:43;11.57;;;5.50;;
40072;SDS011;25774;52.256;9.356;2023-03-01T04:59:08;7.80;;;3.90;;
40072;SDS011;25774;52.256;9.356;2023-03-01T05:04:00;8.20;;;3.53;;
40072;SDS011;25774;52.256;9.356;2023-03-01T05:06:28;10.25;;;4.10;;
40072;SDS011;25774;52.256;9.356;2023-03-01T05:08:53;7.63;;;3.85;;
40072;SDS011;25774;52.256;9.356;2023-03-01T05:11:19;8.77;;;4.13;;
40072;SDS011;25774;52.256;9.356;2023-03-01T05:13:44;7.53;;;3.63;;
40072;SDS011;25774;52.256;9.356;2023-03-01T05:16:10;8.20;;;4.07;;
40072;SDS011;25774;52.256;9.356;2023-03-01T05:18:36;7.68;;;3.75;;
40072;SDS011;25774;52.256;9.356;2023-03-01T05:21:06;12.52;;;4.40;;
40072;SDS011;25774;52.256;9.356;2023-03-01T05:23:36;14.23;;;4.78;;
40072;SDS011;25774;52.256;9.356;2023-03-01T05:26:02;9.73;;;4.40;;
40072;SDS011;25774;52.256;9.356;2023-03-01T05:28:29;10.13;;;3.92;;
40072;SDS011;25774;52.256;9.356;2023-03-01T05:30:55;10.23;;;3.42;;
40072;SDS011;25774;52.256;9.356;2023-03-01T05:33:20;8.20;;;4.03;;
40072;SDS011;25774;52.256;9.356;2023-03-01T05:38:13;8.67;;;3.57;;
40072;SDS011;25774;52.256;9.356;2023-03-01T05:40:43;6.53;;;3.67;;
40072;SDS011;25774;52.256;9.356;2023-03-01T05:43:10;9.98;;;3.47;;
40072;SDS011;25774;52.256;9.356;2023-03-01T05:48:02;9.63;;;3.13;;
40072;SDS011;25774;52.256;9.356;2023-03-01T05:50:29;10.45;;;3.95;;
40072;SDS011;25774;52.256;9.356;2023-03-01T05:55:23;82.55;;;35.00;;
40072;SDS011;25774;52.256;9.356;2023-03-01T05:57:50;44.23;;;20.27;;
40072;SDS011;25774;52.256;9.356;2023-03-01T06:00:16;28.55;;;13.20;;
40072;SDS011;25774;52.256;9.356;2023-03-01T06:02:44;17.20;;;7.63;;
40072;SDS011;25774;52.256;9.356;2023-03-01T06:05:10;13.18;;;5.80;;
40072;SDS011;25774;52.256;9.356;2023-03-01T06:07:37;11.13;;;4.97;;
40072;SDS011;25774;52.256;9.356;2023-03-01T06:10:03;11.13;;;5.25;;
40072;SDS011;25774;52.256;9.356;2023-03-01T06:12:30;11.10;;;5.25;;
40072;SDS011;25774;52.256;9.356;2023-03-01T06:15:00;12.65;;;4.90;;
40072;SDS011;25774;52.256;9.356;2023-03-01T06:17:29;10.88;;;5.03;;
40072;SDS011;25774;52.256;9.356;2023-03-01T06:19:57;13.85;;;4.72;;
40072;SDS011;25774;52.256;9.356;2023-03-01T06:22:22;9.00;;;4.22;;
40072;SDS011;25774;52.256;9.356;2023-03-01T06:24:49;15.00;;;5.90;;
40072;SDS011;25774;52.256;9.356;2023-03-01T06:27:14;10.50;;;4.95;;
40072;SDS011;25774;52.256;9.356;2023-03-01T06:29:40;10.10;;;5.00;;
40072;SDS011;25774;52.256;9.356;2023-03-01T06:32:05;11.07;;;5.47;;
40072;SDS011;25774;52.256;9.356;2023-03-01T06:34:32;13.60;;;5.40;;
40072;SDS011;25774;52.256;9.356;2023-03-01T06:39:22;9.00;;;3.90;;
40072;SDS011;25774;52.256;9.356;2023-03-01T06:41:48;12.37;;;4.17;;
40072;SDS011;25774;52.256;9.356;2023-03-01T06:44:13;9.93;;;4.70;;
40072;SDS011;25774;52.256;9.356;2023-03-01T06:46:39;9.83;;;4.20;;
40072;SDS011;25774;52.256;9.356;2023-03-01T06:49:05;11.38;;;4.28;;
40072;SDS011;25774;52.256;9.356;2023-03-01T06:51:34;8.35;;;4.35;;
40072;SDS011;25774;52.256;9.356;2023-03-01T06:54:00;10.93;;;4.13;;
40072;SDS011;25774;52.256;9.356;2023-03-01T06:56:26;9.77;;;4.22;;
40072;SDS011;25774;52.256;9.356;2023-03-01T06:58:52;12.33;;;4.77;;
40072;SDS011;25774;52.256;9.356;2023-03-01T07:03:43;9.70;;;3.35;;
40072;SDS011;25774;52.256;9.356;2023-03-01T07:06:09;8.93;;;4.43;;
40072;SDS011;25774;52.256;9.356;2023-03-01T07:08:34;7.70;;;3.67;;
40072;SDS011;25774;52.256;9.356;2023-03-01T07:11:00;9.93;;;4.57;;
40072;SDS011;25774;52.256;9.356;2023-03-01T07:13:27;10.65;;;4.68;;
40072;SDS011;25774;52.256;9.356;2023-03-01T07:15:53;8.70;;;4.18;;
40072;SDS011;25774;52.256;9.356;2023-03-01T07:18:19;14.20;;;5.70;;
40072;SDS011;25774;52.256;9.356;2023-03-01T07:20:44;10.68;;;4.65;;
40072;SDS011;25774;52.256;9.356;2023-03-01T07:23:10;11.17;;;4.90;;
40072;SDS011;25774;52.256;9.356;2023-03-01T07:25:35;12.70;;;6.00;;
40072;SDS011;25774;52.256;9.356;2023-03-01T07:28:00;14.03;;;5.80;;
40072;SDS011;25774;52.256;9.356;2023-03-01T07:30:27;12.57;;;5.37;;
40072;SDS011;25774;52.256;9.356;2023-03-01T07:32:53;12.85;;;5.63;;
40072;SDS011;25774;52.256;9.356;2023-03-01T07:35:20;10.25;;;4.85;;
40072;SDS011;25774;52.256;9.356;2023-03-01T07:37:45;11.38;;;4.72;;
40072;SDS011;25774;52.256;9.356;2023-03-01T07:40:11;10.60;;;5.03;;
40072;SDS011;25774;52.256;9.356;2023-03-01T07:42:37;12.52;;;5.75;;
40072;SDS011;25774;52.256;9.356;2023-03-01T07:45:04;8.50;;;4.50;;
40072;SDS011;25774;52.256;9.356;2023-03-01T07:47:30;9.98;;;4.60;;
40072;SDS011;25774;52.256;9.356;2023-03-01T07:49:55;10.00;;;4.40;;
40072;SDS011;25774;52.256;9.356;2023-03-01T07:52:21;11.80;;;5.37;;
40072;SDS011;25774;52.256;9.356;2023-03-01T07:54:47;9.13;;;4.57;;
40072;SDS011;25774;52.256;9.356;2023-03-01T07:59:37;11.65;;;4.60;;
40072;SDS011;25774;52.256;9.356;2023-03-01T08:02:03;16.20;;;5.87;;
40072;SDS011;25774;52.256;9.356;2023-03-01T08:04:28;13.40;;;5.13;;
40072;SDS011;25774;52.256;9.356;2023-03-01T08:06:54;10.63;;;6.10;;
40072;SDS011;25774;52.256;9.356;2023-03-01T08:09:19;11.35;;;5.22;;
40072;SDS011;25774;52.256;9.356;2023-03-01T08:11:45;12.85;;;5.38;;
40072;SDS011;25774;52.256;9.356;2023-03-01T08:14:10;20.27;;;6.30;;
40072;SDS011;25774;52.256;9.356;2023-03-01T08:16:36;17.23;;;6.43;;
40072;SDS011;25774;52.256;9.356;2023-03-01T08:19:09;15.05;;;5.85;;
40072;SDS011;25774;52.256;9.356;2023-03-01T08:21:36;14.48;;;6.90;;
40072;SDS011;25774;52.256;9.356;2023-03-01T08:24:03;14.88;;;7.45;;
40072;SDS011;25774;52.256;9.356;2023-03-01T08:26:31;13.93;;;6.72;;
40072;SDS011;25774;52.256;9.356;2023-03-01T08:28:57;14.68;;;7.45;;
40072;SDS011;25774;52.256;9.356;2023-03-01T08:31:28;14.07;;;6.87;;
40072;SDS011;25774;52.256;9.356;2023-03-01T08:33:58;15.93;;;7.65;;
40072;SDS011;25774;52.256;9.356;2023-03-01T08:36:29;14.50;;;6.28;;
40072;SDS011;25774;52.256;9.356;2023-03-01T08:38:57;11.02;;;5.53;;
40072;SDS011;25774;52.256;9.356;2023-03-01T08:41:22;13.32;;;6.57;;
40072;SDS011;25774;52.256;9.356;2023-03-01T08:43:48;14.25;;;5.80;;
40072;SDS011;25774;52.256;9.356;2023-03-01T08:46:14;11.57;;;5.53;;
40072;SDS011;25774;52.256;9.356;2023-03-01T08:48:39;13.57;;;6.70;;
40072;SDS011;25774;52.256;9.356;2023-03-01T08:51:11;12.07;;;6.25;;
40072;SDS011;25774;52.256;9.356;2023-03-01T08:53:48;10.98;;;6.25;;
40072;SDS011;25774;52.256;9.356;2023-03-01T08:56:14;15.20;;;6.90;;
40072;SDS011;25774;52.256;9.356;2023-03-01T08:58:43;12.55;;;6.38;;
40072;SDS011;25774;52.256;9.356;2023-03-01T09:01:10;12.35;;;6.65;;
40072;SDS011;25774;52.256;9.356;2023-03-01T09:03:37;15.70;;;6.53;;
40072;SDS011;25774;52.256;9.356;2023-03-01T09:06:03;11.82;;;6.30;;
40072;SDS011;25774;52.256;9.356;2023-03-01T09:08:30;11.63;;;6.38;;
40072;SDS011;25774;52.256;9.356;2023-03-01T09:10:59;17.58;;;7.15;;
40072;SDS011;25774;52.256;9.356;2023-03-01T09:13:27;13.52;;;6.35;;
40072;SDS011;25774;52.256;9.356;2023-03-01T09:15:56;11.57;;;6.22;;
40072;SDS011;25774;52.256;9.356;2023-03-01T09:18:21;14.45;;;6.57;;
40072;SDS011;25774;52.256;9.356;2023-03-01T09:20:48;14.13;;;6.27;;
40072;SDS011;25774;52.256;9.356;2023-03-01T09:23:13;16.60;;;5.30;;
40072;SDS011;25774;52.256;9.356;2023-03-01T09:25:38;11.80;;;6.33;;
40072;SDS011;25774;52.256;9.356;2023-03-01T09:28:04;11.13;;;5.27;;
40072;SDS011;25774;52.256;9.356;2023-03-01T09:30:29;12.80;;;5.63;;
40072;SDS011;25774;52.256;9.356;2023-03-01T09:32:56;13.37;;;6.07;;
40072;SDS011;25774;52.256;9.356;2023-03-01T09:35:21;14.15;;;5.78;;
40072;SDS011;25774;52.256;9.356;2023-03-01T09:40:16;13.13;;;5.32;;
40072;SDS011;25774;52.256;9.356;2023-03-01T09:42:50;15.35;;;5.80;;
40072;SDS011;25774;52.256;9.356;2023-03-01T09:45:27;13.85;;;6.30;;
40072;SDS011;25774;52.256;9.356;2023-03-01T09:47:58;16.17;;;5.78;;
40072;SDS011;25774;52.256;9.356;2023-03-01T09:50:23;11.93;;;5.27;;
40072;SDS011;25774;52.256;9.356;2023-03-01T09:55:20;10.30;;;4.77;;
40072;SDS011;25774;52.256;9.356;2023-03-01T10:00:47;12.20;;;5.00;;
40072;SDS011;25774;52.256;9.356;2023-03-01T10:03:37;11.02;;;5.07;;
40072;SDS011;25774;52.256;9.356;2023-03-01T10:06:10;14.38;;;5.38;;
40072;SDS011;25774;52.256;9.356;2023-03-01T10:09:14;8.98;;;4.18;;
40072;SDS011;25774;52.256;9.356;2023-03-01T10:11:41;8.10;;;4.07;;
40072;SDS011;25774;52.256;9.356;2023-03-01T10:16:55;9.02;;;4.35;;
40072;SDS011;25774;52.256;9.356;2023-03-01T10:19:30;9.07;;;4.20;;
40072;SDS011;25774;52.256;9.356;2023-03-01T10:21:57;9.90;;;4.28;;
40072;SDS011;25774;52.256;9.356;2023-03-01T10:24:32;10.10;;;4.80;;
40072;SDS011;25774;52.256;9.356;2023-03-01T10:27:44;7.75;;;3.85;;
40072;SDS011;25774;52.256;9.356;2023-03-01T10:30:36;8.10;;;3.70;;
40072;SDS011;25774;52.256;9.356;2023-03-01T10:32:45;10.50;;;3.75;;
40072;SDS011;25774;52.256;9.356;2023-03-01T10:35:17;10.70;;;4.03;;
40072;SDS011;25774;52.256;9.356;2023-03-01T10:40:31;8.60;;;3.80;;
40072;SDS011;25774;52.256;9.356;2023-03-01T10:42:58;7.25;;;3.08;;
40072;SDS011;25774;52.256;9.356;2023-03-01T10:56:12;9.55;;;3.22;;
40072;SDS011;25774;52.256;9.356;2023-03-01T10:58:41;7.93;;;2.95;;
40072;SDS011;25774;52.256;9.356;2023-03-01T11:04:03;7.53;;;2.60;;
40072;SDS011;25774;52.256;9.356;2023-03-01T11:06:33;8.45;;;3.63;;
40072;SDS011;25774;52.256;9.356;2023-03-01T11:11:45;7.78;;;3.08;;
40072;SDS011;25774;52.256;9.356;2023-03-01T11:14:20;7.47;;;3.30;;
40072;SDS011;25774;52.256;9.356;2023-03-01T11:16:48;6.85;;;2.42;;
40072;SDS011;25774;52.256;9.356;2023-03-01T11:19:23;7.35;;;3.22;;
40072;SDS011;25774;52.256;9.356;2023-03-01T11:21:59;7.45;;;3.40;;
40072;SDS011;25774;52.256;9.356;2023-03-01T11:24:37;8.57;;;3.45;;
40072;SDS011;25774;52.256;9.356;2023-03-01T11:30:02;9.15;;;3.83;;
40072;SDS011;25774;52.256;9.356;2023-03-01T11:32:32;8.30;;;3.40;;
40072;SDS011;25774;52.256;9.356;2023-03-01T11:35:17;6.75;;;3.42;;
40072;SDS011;25774;52.256;9.356;2023-03-01T11:40:41;8.50;;;3.72;;
40072;SDS011;25774;52.256;9.356;2023-03-01T11:48:40;10.40;;;3.20;;
40072;SDS011;25774;52.256;9.356;2023-03-01T11:51:09;7.72;;;3.03;;
40072;SDS011;25774;52.256;9.356;2023-03-01T11:59:06;7.93;;;2.83;;
40072;SDS011;25774;52.256;9.356;2023-03-01T12:08:14;9.77;;;2.67;;
40072;SDS011;25774;52.256;9.356;2023-03-01T12:16:16;6.53;;;3.03;;
40072;SDS011;25774;52.256;9.356;2023-03-01T12:35:38;5.55;;;2.65;;
40072;SDS011;25774;52.256;9.356;2023-03-01T12:46:06;4.60;;;2.03;;
40072;SDS011;25774;52.256;9.356;2023-03-01T12:49:08;5.55;;;2.63;;
40072;SDS011;25774;52.256;9.356;2023-03-01T12:51:38;6.15;;;3.10;;
40072;SDS011;25774;52.256;9.356;2023-03-01T12:54:14;5.93;;;2.10;;
40072;SDS011;25774;52.256;9.356;2023-03-01T12:56:40;4.90;;;2.42;;
40072;SDS011;25774;52.256;9.356;2023-03-01T12:59:11;5.97;;;2.53;;
40072;SDS011;25774;52.256;9.356;2023-03-01T13:11:57;5.32;;;2.17;;
40072;SDS011;25774;52.256;9.356;2023-03-01T13:16:48;4.57;;;1.80;;
40072;SDS011;25774;52.256;9.356;2023-03-01T13:19:17;6.07;;;2.45;;
40072;SDS011;25774;52.256;9.356;2023-03-01T13:21:57;4.43;;;1.92;;
40072;SDS011;25774;52.256;9.356;2023-03-01T13:32:33;6.38;;;1.88;;
40072;SDS011;25774;52.256;9.356;2023-03-01T13:37:42;7.38;;;1.90;;
40072;SDS011;25774;52.256;9.356;2023-03-01T13:40:56;5.90;;;1.98;;
40072;SDS011;25774;52.256;9.356;2023-03-01T13:42:54;5.38;;;2.28;;
40072;SDS011;25774;52.256;9.356;2023-03-01T13:45:39;3.65;;;2.03;;
40072;SDS011;25774;52.256;9.356;2023-03-01T13:48:16;8.27;;;2.50;;
40072;SDS011;25774;52.256;9.356;2023-03-01T13:50:54;3.95;;;1.83;;
40072;SDS011;25774;52.256;9.356;2023-03-01T13:53:24;8.07;;;2.58;;
40072;SDS011;25774;52.256;9.356;2023-03-01T13:56:07;4.60;;;2.33;;
40072;SDS011;25774;52.256;9.356;2023-03-01T13:58:52;5.15;;;2.65;;
40072;SDS011;25774;52.256;9.356;2023-03-01T14:01:30;6.70;;;2.10;;
40072;SDS011;25774;52.256;9.356;2023-03-01T14:03:57;4.25;;;2.10;;
40072;SDS011;25774;52.256;9.356;2023-03-01T14:09:03;4.50;;;2.17;;
40072;SDS011;25774;52.256;9.356;2023-03-01T14:11:41;5.10;;;1.90;;
40072;SDS011;25774;52.256;9.356;2023-03-01T14:14:39;7.63;;;2.10;;
40072;SDS011;25774;52.256;9.356;2023-03-01T14:22:27;3.60;;;1.80;;
40072;SDS011;25774;52.256;9.356;2023-03-01T14:24:57;4.18;;;2.08;;
40072;SDS011;25774;52.256;9.356;2023-03-01T14:27:30;6.28;;;1.95;;
40072;SDS011;25774;52.256;9.356;2023-03-01T14:30:02;5.15;;;2.03;;
40072;SDS011;25774;52.256;9.356;2023-03-01T14:32:35;5.97;;;2.20;;
40072;SDS011;25774;52.256;9.356;2023-03-01T14:35:00;7.00;;;2.20;;
40072;SDS011;25774;52.256;9.356;2023-03-01T14:37:31;7.23;;;2.17;;
40072;SDS011;25774;52.256;9.356;2023-03-01T14:39:59;4.45;;;2.05;;
40072;SDS011;25774;52.256;9.356;2023-03-01T14:42:28;5.82;;;1.80;;
40072;SDS011;25774;52.256;9.356;2023-03-01T14:44:57;7.07;;;1.80;;
40072;SDS011;25774;52.256;9.356;2023-03-01T14:47:27;7.97;;;2.05;;
40072;SDS011;25774;52.256;9.356;2023-03-01T14:49:59;4.35;;;1.98;;
40072;SDS011;25774;52.256;9.356;2023-03-01T14:52:36;6.80;;;2.10;;
40072;SDS011;25774;52.256;9.356;2023-03-01T14:55:05;8.00;;;3.20;;
40072;SDS011;25774;52.256;9.356;2023-03-01T14:57:42;5.07;;;2.35;;
40072;SDS011;25774;52.256;9.356;2023-03-01T15:00:10;7.10;;;1.60;;
40072;SDS011;25774;52.256;9.356;2023-03-01T15:02:46;4.63;;;1.95;;
40072;SDS011;25774;52.256;9.356;2023-03-01T15:05:14;4.60;;;2.05;;
40072;SDS011;25774;52.256;9.356;2023-03-01T15:07:43;6.68;;;2.15;;
40072;SDS011;25774;52.256;9.356;2023-03-01T15:10:25;4.65;;;2.17;;
40072;SDS011;25774;52.256;9.356;2023-03-01T15:12:53;7.13;;;2.60;;
40072;SDS011;25774;52.256;9.356;2023-03-01T15:17:54;6.32;;;1.90;;
40072;SDS011;25774;52.256;9.356;2023-03-01T15:20:24;4.63;;;2.03;;
40072;SDS011;25774;52.256;9.356;2023-03-01T15:22:51;5.32;;;2.33;;
40072;SDS011;25774;52.256;9.356;2023-03-01T15:27:53;5.00;;;1.92;;
40072;SDS011;25774;52.256;9.356;2023-03-01T15:30:21;5.88;;;2.35;;
40072;SDS011;25774;52.256;9.356;2023-03-01T15:35:51;6.32;;;2.30;;
40072;SDS011;25774;52.256;9.356;2023-03-01T15:40:57;5.38;;;1.90;;
40072;SDS011;25774;52.256;9.356;2023-03-01T15:43:40;8.27;;;2.03;;
40072;SDS011;25774;52.256;9.356;2023-03-01T15:48:50;11.20;;;3.00;;
40072;SDS011;25774;52.256;9.356;2023-03-01T15:51:17;5.60;;;2.15;;
40072;SDS011;25774;52.256;9.356;2023-03-01T15:53:51;7.72;;;2.80;;
40072;SDS011;25774;52.256;9.356;2023-03-01T15:56:17;6.10;;;2.25;;
40072;SDS011;25774;52.256;9.356;2023-03-01T15:58:43;5.13;;;2.20;;
40072;SDS011;25774;52.256;9.356;2023-03-01T16:01:16;3.83;;;1.80;;
40072;SDS011;25774;52.256;9.356;2023-03-01T16:03:42;4.00;;;2.25;;
40072;SDS011;25774;52.256;9.356;2023-03-01T16:06:09;3.58;;;1.90;;
40072;SDS011;25774;52.256;9.356;2023-03-01T16:08:35;3.72;;;1.73;;
40072;SDS011;25774;52.256;9.356;2023-03-01T16:11:01;5.22;;;1.98;;
40072;SDS011;25774;52.256;9.356;2023-03-01T16:13:30;5.35;;;2.20;;
40072;SDS011;25774;52.256;9.356;2023-03-01T16:15:56;5.38;;;2.13;;
40072;SDS011;25774;52.256;9.356;2023-03-01T16:18:22;4.63;;;2.22;;
40072;SDS011;25774;52.256;9.356;2023-03-01T16:20:47;4.67;;;2.23;;
40072;SDS011;25774;52.256;9.356;2023-03-01T16:23:14;5.07;;;2.25;;
40072;SDS011;25774;52.256;9.356;2023-03-01T16:25:39;3.05;;;1.60;;
40072;SDS011;25774;52.256;9.356;2023-03-01T16:28:07;5.65;;;2.22;;
40072;SDS011;25774;52.256;9.356;2023-03-01T16:30:36;6.57;;;2.40;;
40072;SDS011;25774;52.256;9.356;2023-03-01T16:33:03;4.03;;;1.90;;
40072;SDS011;25774;52.256;9.356;2023-03-01T16:35:31;5.05;;;2.22;;
40072;SDS011;25774;52.256;9.356;2023-03-01T16:37:57;6.57;;;2.30;;
40072;SDS011;25774;52.256;9.356;2023-03-01T16:40:26;7.88;;;2.03;;
40072;SDS011;25774;52.256;9.356;2023-03-01T16:42:52;5.53;;;2.65;;
40072;SDS011;25774;52.256;9.356;2023-03-01T16:45:20;7.15;;;2.50;;
40072;SDS011;25774;52.256;9.356;2023-03-01T16:47:45;5.07;;;2.00;;
40072;SDS011;25774;52.256;9.356;2023-03-01T16:50:10;6.47;;;2.80;;
40072;SDS011;25774;52.256;9.356;2023-03-01T16:52:37;6.97;;;3.13;;
40072;SDS011;25774;52.256;9.356;2023-03-01T16:55:03;9.38;;;3.50;;
40072;SDS011;25774;52.256;9.356;2023-03-01T16:57:33;9.82;;;3.88;;
40072;SDS011;25774;52.256;9.356;2023-03-01T16:59:59;13.10;;;4.03;;
40072;SDS011;25774;52.256;9.356;2023-03-01T17:02:24;7.80;;;3.30;;
40072;SDS011;25774;52.256;9.356;2023-03-01T17:04:55;11.00;;;3.57;;
40072;SDS011;25774;52.256;9.356;2023-03-01T17:07:21;9.40;;;3.40;;
40072;SDS011;25774;52.256;9.356;2023-03-01T17:09:47;9.30;;;3.33;;
40072;SDS011;25774;52.256;9.356;2023-03-01T17:12:13;10.68;;;3.40;;
40072;SDS011;25774;52.256;9.356;2023-03-01T17:14:38;9.73;;;3.45;;
40072;SDS011;25774;52.256;9.356;2023-03-01T17:17:06;10.02;;;4.13;;
40072;SDS011;25774;52.256;9.356;2023-03-01T17:21:58;6.20;;;2.92;;
40072;SDS011;25774;52.256;9.356;2023-03-01T17:26:50;6.00;;;2.50;;
40072;SDS011;25774;52.256;9.356;2023-03-01T17:29:15;6.97;;;2.47;;
40072;SDS011;25774;52.256;9.356;2023-03-01T17:31:42;7.60;;;3.13;;
40072;SDS011;25774;52.256;9.356;2023-03-01T17:34:08;5.17;;;2.30;;
40072;SDS011;25774;52.256;9.356;2023-03-01T17:36:33;4.90;;;2.30;;
40072;SDS011;25774;52.256;9.356;2023-03-01T17:39:05;5.07;;;2.10;;
40072;SDS011;25774;52.256;9.356;2023-03-01T17:41:31;4.43;;;2.30;;
40072;SDS011;25774;52.256;9.356;2023-03-01T17:43:57;5.10;;;2.67;;
40072;SDS011;25774;52.256;9.356;2023-03-01T17:48:51;12.90;;;3.90;;
40072;SDS011;25774;52.256;9.356;2023-03-01T17:51:16;5.40;;;2.87;;
40072;SDS011;25774;52.256;9.356;2023-03-01T17:53:42;6.17;;;2.90;;